8A0 weather

Albertville Regional Airport/Thomas J Brumlik Field
Albertville, Alabama, United States

Public forecast

Using degrees Fahrenheit for public forecast. Weather courtesy of forecast.io.

METAR (pilot weather report)

Retrieved UTC (0 seconds ago):

TAF (pilot weather forecast)

Forecast is more than 12 hours old.

Closest forecast is Huntsville International Carl T Jones Field, 35.5 nm (65.8 km) NW. Retrieved 2019/08/24 00:22 UTC (1 day ago):

TAF KHSV 242320Z 2500/2524 VRB05KT P6SM VCTS SCT035CB BKN250 TEMPO 2500/2502 4SM TSRA BR BKN025CB FM250300 11002KT P6SM SCT015 BKN025 OVC150 FM250800 13005KT 6SM BR BKN012 FM251000 10005KT 4SM BR OVC007 FM251500 12006KT 6SM BR VCSH OVC015 FM252000 12006KT P6SM -SHRA OVC025